sensor_id;sensor_type;location;lat;lon;timestamp;P1;durP1;ratioP1;P2;durP2;ratioP2
85682;SDS011;76253;52.232;5.176;2024-03-02T00:02:23;2.90;;;1.50;;
85682;SDS011;76253;52.232;5.176;2024-03-02T00:04:48;1.77;;;1.25;;
85682;SDS011;76253;52.232;5.176;2024-03-02T00:07:14;2.58;;;1.40;;
85682;SDS011;76253;52.232;5.176;2024-03-02T00:09:40;2.00;;;1.20;;
85682;SDS011;76253;52.232;5.176;2024-03-02T00:12:06;2.83;;;1.25;;
85682;SDS011;76253;52.232;5.176;2024-03-02T00:14:32;3.03;;;1.38;;
85682;SDS011;76253;52.232;5.176;2024-03-02T00:16:57;2.85;;;1.40;;
85682;SDS011;76253;52.232;5.176;2024-03-02T00:19:24;2.83;;;1.65;;
85682;SDS011;76253;52.232;5.176;2024-03-02T00:21:50;2.00;;;1.30;;
85682;SDS011;76253;52.232;5.176;2024-03-02T00:26:46;2.70;;;1.55;;
85682;SDS011;76253;52.232;5.176;2024-03-02T00:29:11;1.65;;;1.20;;
85682;SDS011;76253;52.232;5.176;2024-03-02T00:31:41;1.65;;;1.05;;
85682;SDS011;76253;52.232;5.176;2024-03-02T00:34:06;0.70;;;0.68;;
85682;SDS011;76253;52.232;5.176;2024-03-02T00:38:57;1.17;;;0.80;;
85682;SDS011;76253;52.232;5.176;2024-03-02T00:46:41;0.65;;;0.60;;
85682;SDS011;76253;52.232;5.176;2024-03-02T00:49:21;0.80;;;0.50;;
85682;SDS011;76253;52.232;5.176;2024-03-02T00:51:48;0.60;;;0.60;;
85682;SDS011;76253;52.232;5.176;2024-03-02T00:54:15;0.77;;;0.57;;
85682;SDS011;76253;52.232;5.176;2024-03-02T00:56:43;0.80;;;0.77;;
85682;SDS011;76253;52.232;5.176;2024-03-02T00:59:10;0.40;;;0.38;;
85682;SDS011;76253;52.232;5.176;2024-03-02T01:01:35;0.85;;;0.60;;
85682;SDS011;76253;52.232;5.176;2024-03-02T01:04:01;1.53;;;0.50;;
85682;SDS011;76253;52.232;5.176;2024-03-02T01:06:26;0.60;;;0.60;;
85682;SDS011;76253;52.232;5.176;2024-03-02T01:08:51;0.40;;;0.40;;
85682;SDS011;76253;52.232;5.176;2024-03-02T01:11:17;0.88;;;0.65;;
85682;SDS011;76253;52.232;5.176;2024-03-02T01:13:43;0.70;;;0.50;;
85682;SDS011;76253;52.232;5.176;2024-03-02T01:16:09;0.77;;;0.70;;
85682;SDS011;76253;52.232;5.176;2024-03-02T01:18:35;0.75;;;0.65;;
85682;SDS011;76253;52.232;5.176;2024-03-02T01:21:00;0.60;;;0.57;;
85682;SDS011;76253;52.232;5.176;2024-03-02T01:25:51;0.83;;;0.50;;
85682;SDS011;76253;52.232;5.176;2024-03-02T01:28:17;0.57;;;0.52;;
85682;SDS011;76253;52.232;5.176;2024-03-02T01:30:45;0.80;;;0.70;;
85682;SDS011;76253;52.232;5.176;2024-03-02T01:33:10;2.38;;;1.27;;
85682;SDS011;76253;52.232;5.176;2024-03-02T01:35:36;1.52;;;0.90;;
85682;SDS011;76253;52.232;5.176;2024-03-02T01:40:28;1.50;;;0.70;;
85682;SDS011;76253;52.232;5.176;2024-03-02T01:42:53;0.95;;;0.60;;
85682;SDS011;76253;52.232;5.176;2024-03-02T01:45:20;0.70;;;0.70;;
85682;SDS011;76253;52.232;5.176;2024-03-02T01:47:46;1.65;;;0.60;;
85682;SDS011;76253;52.232;5.176;2024-03-02T01:50:12;1.48;;;1.00;;
85682;SDS011;76253;52.232;5.176;2024-03-02T01:52:39;0.95;;;0.70;;
85682;SDS011;76253;52.232;5.176;2024-03-02T01:55:04;0.98;;;0.90;;
85682;SDS011;76253;52.232;5.176;2024-03-02T01:57:31;0.70;;;0.63;;
85682;SDS011;76253;52.232;5.176;2024-03-02T01:59:56;1.20;;;0.70;;
85682;SDS011;76253;52.232;5.176;2024-03-02T02:02:22;2.38;;;0.90;;
85682;SDS011;76253;52.232;5.176;2024-03-02T02:04:48;1.48;;;0.73;;
85682;SDS011;76253;52.232;5.176;2024-03-02T02:07:13;2.83;;;1.03;;
85682;SDS011;76253;52.232;5.176;2024-03-02T02:09:39;0.82;;;0.70;;
85682;SDS011;76253;52.232;5.176;2024-03-02T02:12:06;2.03;;;0.82;;
85682;SDS011;76253;52.232;5.176;2024-03-02T02:14:32;2.10;;;0.80;;
85682;SDS011;76253;52.232;5.176;2024-03-02T02:16:59;1.27;;;0.75;;
85682;SDS011;76253;52.232;5.176;2024-03-02T02:19:25;1.73;;;0.85;;
85682;SDS011;76253;52.232;5.176;2024-03-02T02:21:50;1.47;;;0.90;;
85682;SDS011;76253;52.232;5.176;2024-03-02T02:24:15;2.50;;;1.07;;
85682;SDS011;76253;52.232;5.176;2024-03-02T02:26:41;1.38;;;1.00;;
85682;SDS011;76253;52.232;5.176;2024-03-02T02:29:06;1.23;;;0.80;;
85682;SDS011;76253;52.232;5.176;2024-03-02T02:31:41;1.60;;;1.10;;
85682;SDS011;76253;52.232;5.176;2024-03-02T02:34:07;1.23;;;0.90;;
85682;SDS011;76253;52.232;5.176;2024-03-02T02:36:36;1.23;;;0.70;;
85682;SDS011;76253;52.232;5.176;2024-03-02T02:39:03;1.92;;;1.35;;
85682;SDS011;76253;52.232;5.176;2024-03-02T02:41:30;1.67;;;0.70;;
85682;SDS011;76253;52.232;5.176;2024-03-02T02:43:55;0.73;;;0.60;;
85682;SDS011;76253;52.232;5.176;2024-03-02T02:46:21;1.25;;;0.82;;
85682;SDS011;76253;52.232;5.176;2024-03-02T02:48:46;0.90;;;0.77;;
85682;SDS011;76253;52.232;5.176;2024-03-02T02:51:11;1.07;;;0.80;;
85682;SDS011;76253;52.232;5.176;2024-03-02T02:53:37;1.87;;;0.93;;
85682;SDS011;76253;52.232;5.176;2024-03-02T02:56:05;1.50;;;0.77;;
85682;SDS011;76253;52.232;5.176;2024-03-02T02:58:31;1.50;;;0.98;;
85682;SDS011;76253;52.232;5.176;2024-03-02T03:00:56;1.00;;;0.70;;
85682;SDS011;76253;52.232;5.176;2024-03-02T03:03:22;1.83;;;0.70;;
85682;SDS011;76253;52.232;5.176;2024-03-02T03:05:48;1.30;;;0.70;;
85682;SDS011;76253;52.232;5.176;2024-03-02T03:10:39;2.88;;;0.77;;
85682;SDS011;76253;52.232;5.176;2024-03-02T03:13:05;1.48;;;1.02;;
85682;SDS011;76253;52.232;5.176;2024-03-02T03:15:33;2.28;;;1.08;;
85682;SDS011;76253;52.232;5.176;2024-03-02T03:17:59;0.95;;;0.80;;
85682;SDS011;76253;52.232;5.176;2024-03-02T03:20:25;0.70;;;0.65;;
85682;SDS011;76253;52.232;5.176;2024-03-02T03:22:50;0.97;;;0.80;;
85682;SDS011;76253;52.232;5.176;2024-03-02T03:25:16;1.10;;;0.73;;
85682;SDS011;76253;52.232;5.176;2024-03-02T03:27:41;2.03;;;0.80;;
85682;SDS011;76253;52.232;5.176;2024-03-02T03:30:06;1.88;;;1.13;;
85682;SDS011;76253;52.232;5.176;2024-03-02T03:32:32;0.90;;;0.77;;
85682;SDS011;76253;52.232;5.176;2024-03-02T03:34:57;4.07;;;1.03;;
85682;SDS011;76253;52.232;5.176;2024-03-02T03:37:23;0.88;;;0.75;;
85682;SDS011;76253;52.232;5.176;2024-03-02T03:39:49;1.60;;;0.90;;
85682;SDS011;76253;52.232;5.176;2024-03-02T03:42:14;1.10;;;0.90;;
85682;SDS011;76253;52.232;5.176;2024-03-02T03:44:39;2.20;;;0.77;;
85682;SDS011;76253;52.232;5.176;2024-03-02T03:47:06;1.70;;;0.90;;
85682;SDS011;76253;52.232;5.176;2024-03-02T03:49:32;1.30;;;0.93;;
85682;SDS011;76253;52.232;5.176;2024-03-02T03:51:57;0.93;;;0.80;;
85682;SDS011;76253;52.232;5.176;2024-03-02T03:54:22;1.57;;;0.83;;
85682;SDS011;76253;52.232;5.176;2024-03-02T03:56:48;0.88;;;0.73;;
85682;SDS011;76253;52.232;5.176;2024-03-02T03:59:14;1.30;;;0.77;;
85682;SDS011;76253;52.232;5.176;2024-03-02T04:01:39;0.70;;;0.57;;
85682;SDS011;76253;52.232;5.176;2024-03-02T04:04:05;1.95;;;0.60;;
85682;SDS011;76253;52.232;5.176;2024-03-02T04:06:30;2.53;;;2.42;;
85682;SDS011;76253;52.232;5.176;2024-03-02T04:08:56;0.70;;;0.57;;
85682;SDS011;76253;52.232;5.176;2024-03-02T04:11:21;1.02;;;0.60;;
85682;SDS011;76253;52.232;5.176;2024-03-02T04:13:47;1.23;;;0.50;;
85682;SDS011;76253;52.232;5.176;2024-03-02T04:16:12;0.60;;;0.50;;
85682;SDS011;76253;52.232;5.176;2024-03-02T04:18:37;1.48;;;0.60;;
85682;SDS011;76253;52.232;5.176;2024-03-02T04:21:04;0.88;;;0.70;;
85682;SDS011;76253;52.232;5.176;2024-03-02T04:23:29;0.65;;;0.65;;
85682;SDS011;76253;52.232;5.176;2024-03-02T04:25:55;0.83;;;0.70;;
85682;SDS011;76253;52.232;5.176;2024-03-02T04:28:20;0.90;;;0.70;;
85682;SDS011;76253;52.232;5.176;2024-03-02T04:30:46;1.95;;;0.70;;
85682;SDS011;76253;52.232;5.176;2024-03-02T04:33:11;2.60;;;0.73;;
85682;SDS011;76253;52.232;5.176;2024-03-02T04:35:36;0.90;;;0.60;;
85682;SDS011;76253;52.232;5.176;2024-03-02T04:38:02;1.27;;;0.80;;
85682;SDS011;76253;52.232;5.176;2024-03-02T04:40:28;1.10;;;0.73;;
85682;SDS011;76253;52.232;5.176;2024-03-02T04:42:53;1.05;;;0.60;;
85682;SDS011;76253;52.232;5.176;2024-03-02T04:45:20;3.13;;;1.13;;
85682;SDS011;76253;52.232;5.176;2024-03-02T04:47:45;2.90;;;0.80;;
85682;SDS011;76253;52.232;5.176;2024-03-02T04:50:13;1.90;;;1.35;;
85682;SDS011;76253;52.232;5.176;2024-03-02T04:52:39;1.63;;;0.60;;
85682;SDS011;76253;52.232;5.176;2024-03-02T04:55:04;1.85;;;0.77;;
85682;SDS011;76253;52.232;5.176;2024-03-02T04:57:50;1.60;;;0.70;;
85682;SDS011;76253;52.232;5.176;2024-03-02T05:00:16;1.30;;;0.77;;
85682;SDS011;76253;52.232;5.176;2024-03-02T05:02:42;1.70;;;1.00;;
85682;SDS011;76253;52.232;5.176;2024-03-02T05:05:07;2.90;;;1.00;;
85682;SDS011;76253;52.232;5.176;2024-03-02T05:07:33;1.77;;;1.23;;
85682;SDS011;76253;52.232;5.176;2024-03-02T05:09:58;2.58;;;1.00;;
85682;SDS011;76253;52.232;5.176;2024-03-02T05:12:24;2.05;;;1.00;;
85682;SDS011;76253;52.232;5.176;2024-03-02T05:15:10;2.38;;;0.85;;
85682;SDS011;76253;52.232;5.176;2024-03-02T05:17:36;1.00;;;0.80;;
85682;SDS011;76253;52.232;5.176;2024-03-02T05:22:31;1.00;;;0.60;;
85682;SDS011;76253;52.232;5.176;2024-03-02T05:24:56;1.13;;;0.80;;
85682;SDS011;76253;52.232;5.176;2024-03-02T05:27:22;2.03;;;1.02;;
85682;SDS011;76253;52.232;5.176;2024-03-02T05:29:47;2.17;;;1.10;;
85682;SDS011;76253;52.232;5.176;2024-03-02T05:32:13;3.05;;;1.20;;
85682;SDS011;76253;52.232;5.176;2024-03-02T05:34:38;3.75;;;1.77;;
85682;SDS011;76253;52.232;5.176;2024-03-02T05:37:03;4.10;;;2.30;;
85682;SDS011;76253;52.232;5.176;2024-03-02T05:39:29;8.45;;;3.03;;
85682;SDS011;76253;52.232;5.176;2024-03-02T05:41:54;6.67;;;2.63;;
85682;SDS011;76253;52.232;5.176;2024-03-02T05:44:20;5.25;;;2.47;;
85682;SDS011;76253;52.232;5.176;2024-03-02T05:46:45;4.57;;;2.13;;
85682;SDS011;76253;52.232;5.176;2024-03-02T05:49:11;1.35;;;1.00;;
85682;SDS011;76253;52.232;5.176;2024-03-02T05:51:36;3.30;;;1.00;;
85682;SDS011;76253;52.232;5.176;2024-03-02T05:54:01;0.82;;;0.60;;
85682;SDS011;76253;52.232;5.176;2024-03-02T05:56:27;1.70;;;0.93;;
85682;SDS011;76253;52.232;5.176;2024-03-02T05:58:54;2.40;;;1.05;;
85682;SDS011;76253;52.232;5.176;2024-03-02T06:01:43;1.75;;;1.10;;
85682;SDS011;76253;52.232;5.176;2024-03-02T06:04:13;0.80;;;0.60;;
85682;SDS011;76253;52.232;5.176;2024-03-02T06:06:40;0.77;;;0.68;;
85682;SDS011;76253;52.232;5.176;2024-03-02T06:09:05;0.98;;;0.63;;
85682;SDS011;76253;52.232;5.176;2024-03-02T06:11:36;2.03;;;0.70;;
85682;SDS011;76253;52.232;5.176;2024-03-02T06:14:02;3.85;;;0.70;;
85682;SDS011;76253;52.232;5.176;2024-03-02T06:16:28;0.95;;;0.70;;
85682;SDS011;76253;52.232;5.176;2024-03-02T06:18:54;1.55;;;0.90;;
85682;SDS011;76253;52.232;5.176;2024-03-02T06:21:22;1.92;;;0.80;;
85682;SDS011;76253;52.232;5.176;2024-03-02T06:23:48;0.88;;;0.70;;
85682;SDS011;76253;52.232;5.176;2024-03-02T06:26:14;1.55;;;0.73;;
85682;SDS011;76253;52.232;5.176;2024-03-02T06:28:39;0.88;;;0.60;;
85682;SDS011;76253;52.232;5.176;2024-03-02T06:31:04;2.13;;;0.57;;
85682;SDS011;76253;52.232;5.176;2024-03-02T06:33:30;1.67;;;0.80;;
85682;SDS011;76253;52.232;5.176;2024-03-02T06:35:55;1.65;;;0.60;;
85682;SDS011;76253;52.232;5.176;2024-03-02T06:38:20;1.00;;;0.68;;
85682;SDS011;76253;52.232;5.176;2024-03-02T06:40:47;1.98;;;0.80;;
85682;SDS011;76253;52.232;5.176;2024-03-02T06:45:38;1.25;;;0.73;;
85682;SDS011;76253;52.232;5.176;2024-03-02T06:48:04;0.90;;;0.50;;
85682;SDS011;76253;52.232;5.176;2024-03-02T06:50:30;2.40;;;0.70;;
85682;SDS011;76253;52.232;5.176;2024-03-02T06:52:56;1.10;;;0.60;;
85682;SDS011;76253;52.232;5.176;2024-03-02T06:55:21;1.00;;;0.80;;
85682;SDS011;76253;52.232;5.176;2024-03-02T06:57:47;0.80;;;0.70;;
85682;SDS011;76253;52.232;5.176;2024-03-02T07:00:13;2.25;;;0.98;;
85682;SDS011;76253;52.232;5.176;2024-03-02T07:02:40;1.20;;;0.70;;
85682;SDS011;76253;52.232;5.176;2024-03-02T07:05:06;2.05;;;0.65;;
85682;SDS011;76253;52.232;5.176;2024-03-02T07:07:33;0.85;;;0.70;;
85682;SDS011;76253;52.232;5.176;2024-03-02T07:10:03;0.95;;;0.63;;
85682;SDS011;76253;52.232;5.176;2024-03-02T07:12:29;3.30;;;0.70;;
85682;SDS011;76253;52.232;5.176;2024-03-02T07:14:56;1.23;;;0.70;;
85682;SDS011;76253;52.232;5.176;2024-03-02T07:17:30;2.08;;;0.70;;
85682;SDS011;76253;52.232;5.176;2024-03-02T07:19:56;5.13;;;1.00;;
85682;SDS011;76253;52.232;5.176;2024-03-02T07:22:23;3.17;;;0.93;;
85682;SDS011;76253;52.232;5.176;2024-03-02T07:24:50;2.65;;;0.70;;
85682;SDS011;76253;52.232;5.176;2024-03-02T07:27:16;1.23;;;0.80;;
85682;SDS011;76253;52.232;5.176;2024-03-02T07:29:43;1.10;;;0.80;;
85682;SDS011;76253;52.232;5.176;2024-03-02T07:32:09;1.90;;;0.70;;
85682;SDS011;76253;52.232;5.176;2024-03-02T07:34:35;3.03;;;1.08;;
85682;SDS011;76253;52.232;5.176;2024-03-02T07:37:01;0.95;;;0.73;;
85682;SDS011;76253;52.232;5.176;2024-03-02T07:39:27;1.98;;;1.00;;
85682;SDS011;76253;52.232;5.176;2024-03-02T07:41:54;1.65;;;1.00;;
85682;SDS011;76253;52.232;5.176;2024-03-02T07:44:21;3.90;;;1.02;;
85682;SDS011;76253;52.232;5.176;2024-03-02T07:46:48;0.73;;;0.60;;
85682;SDS011;76253;52.232;5.176;2024-03-02T07:49:18;0.88;;;0.60;;
85682;SDS011;76253;52.232;5.176;2024-03-02T07:51:44;1.40;;;0.70;;
85682;SDS011;76253;52.232;5.176;2024-03-02T07:54:12;2.42;;;1.13;;
85682;SDS011;76253;52.232;5.176;2024-03-02T07:56:37;0.60;;;0.50;;
85682;SDS011;76253;52.232;5.176;2024-03-02T07:59:03;0.88;;;0.60;;
85682;SDS011;76253;52.232;5.176;2024-03-02T08:01:32;2.17;;;0.70;;
85682;SDS011;76253;52.232;5.176;2024-03-02T08:03:58;1.98;;;0.70;;
85682;SDS011;76253;52.232;5.176;2024-03-02T08:06:28;2.72;;;0.90;;
85682;SDS011;76253;52.232;5.176;2024-03-02T08:08:54;1.00;;;0.80;;
85682;SDS011;76253;52.232;5.176;2024-03-02T08:11:21;1.25;;;0.90;;
85682;SDS011;76253;52.232;5.176;2024-03-02T08:16:12;0.90;;;0.80;;
85682;SDS011;76253;52.232;5.176;2024-03-02T08:18:38;1.50;;;0.90;;
85682;SDS011;76253;52.232;5.176;2024-03-02T08:21:04;3.03;;;1.00;;
85682;SDS011;76253;52.232;5.176;2024-03-02T08:23:29;3.17;;;0.80;;
85682;SDS011;76253;52.232;5.176;2024-03-02T08:25:55;2.17;;;1.10;;
85682;SDS011;76253;52.232;5.176;2024-03-02T08:28:22;1.25;;;0.80;;
85682;SDS011;76253;52.232;5.176;2024-03-02T08:30:47;2.90;;;1.08;;
85682;SDS011;76253;52.232;5.176;2024-03-02T08:33:13;1.33;;;0.80;;
85682;SDS011;76253;52.232;5.176;2024-03-02T08:35:38;1.17;;;0.80;;
85682;SDS011;76253;52.232;5.176;2024-03-02T08:38:04;0.73;;;0.63;;
85682;SDS011;76253;52.232;5.176;2024-03-02T08:40:30;3.45;;;0.75;;
85682;SDS011;76253;52.232;5.176;2024-03-02T08:42:55;2.97;;;0.68;;
85682;SDS011;76253;52.232;5.176;2024-03-02T08:45:20;1.90;;;0.90;;
85682;SDS011;76253;52.232;5.176;2024-03-02T08:47:46;2.83;;;0.80;;
85682;SDS011;76253;52.232;5.176;2024-03-02T08:50:12;2.40;;;0.88;;
85682;SDS011;76253;52.232;5.176;2024-03-02T08:52:39;3.15;;;0.80;;
85682;SDS011;76253;52.232;5.176;2024-03-02T08:55:05;3.58;;;0.85;;
85682;SDS011;76253;52.232;5.176;2024-03-02T08:57:32;2.05;;;0.85;;
85682;SDS011;76253;52.232;5.176;2024-03-02T08:59:57;1.98;;;0.90;;
85682;SDS011;76253;52.232;5.176;2024-03-02T09:02:23;2.80;;;0.80;;
85682;SDS011;76253;52.232;5.176;2024-03-02T09:04:48;1.25;;;0.90;;
85682;SDS011;76253;52.232;5.176;2024-03-02T09:07:14;2.28;;;0.65;;
85682;SDS011;76253;52.232;5.176;2024-03-02T09:09:40;1.88;;;0.70;;
85682;SDS011;76253;52.232;5.176;2024-03-02T09:12:06;3.72;;;1.30;;
85682;SDS011;76253;52.232;5.176;2024-03-02T09:14:32;2.97;;;1.00;;
85682;SDS011;76253;52.232;5.176;2024-03-02T09:16:57;1.80;;;0.95;;
85682;SDS011;76253;52.232;5.176;2024-03-02T09:19:23;2.50;;;0.90;;
85682;SDS011;76253;52.232;5.176;2024-03-02T09:21:48;2.17;;;0.80;;
85682;SDS011;76253;52.232;5.176;2024-03-02T09:24:15;4.55;;;1.67;;
85682;SDS011;76253;52.232;5.176;2024-03-02T09:26:41;1.23;;;0.80;;
85682;SDS011;76253;52.232;5.176;2024-03-02T09:29:07;3.08;;;1.23;;
85682;SDS011;76253;52.232;5.176;2024-03-02T09:31:32;3.05;;;0.90;;
85682;SDS011;76253;52.232;5.176;2024-03-02T09:33:57;3.28;;;1.45;;
85682;SDS011;76253;52.232;5.176;2024-03-02T09:36:23;3.40;;;1.00;;
85682;SDS011;76253;52.232;5.176;2024-03-02T09:38:48;2.60;;;1.17;;
85682;SDS011;76253;52.232;5.176;2024-03-02T09:41:14;1.00;;;0.70;;
85682;SDS011;76253;52.232;5.176;2024-03-02T09:43:40;2.90;;;0.77;;
85682;SDS011;76253;52.232;5.176;2024-03-02T09:46:10;3.05;;;1.20;;
85682;SDS011;76253;52.232;5.176;2024-03-02T09:48:36;5.43;;;1.40;;
85682;SDS011;76253;52.232;5.176;2024-03-02T09:51:01;1.65;;;0.75;;
85682;SDS011;76253;52.232;5.176;2024-03-02T09:53:31;3.78;;;0.98;;
85682;SDS011;76253;52.232;5.176;2024-03-02T09:55:58;2.75;;;0.80;;
85682;SDS011;76253;52.232;5.176;2024-03-02T09:58:27;3.45;;;0.90;;
85682;SDS011;76253;52.232;5.176;2024-03-02T10:00:53;3.17;;;0.90;;
85682;SDS011;76253;52.232;5.176;2024-03-02T10:03:19;9.88;;;1.20;;
85682;SDS011;76253;52.232;5.176;2024-03-02T10:05:44;3.92;;;0.90;;
85682;SDS011;76253;52.232;5.176;2024-03-02T10:10:36;2.00;;;1.27;;
85682;SDS011;76253;52.232;5.176;2024-03-02T10:13:06;5.50;;;1.20;;
85682;SDS011;76253;52.232;5.176;2024-03-02T10:15:33;2.92;;;1.08;;
85682;SDS011;76253;52.232;5.176;2024-03-02T10:17:58;4.53;;;1.02;;
85682;SDS011;76253;52.232;5.176;2024-03-02T10:20:27;3.60;;;1.10;;
85682;SDS011;76253;52.232;5.176;2024-03-02T10:23:18;2.75;;;0.93;;
85682;SDS011;76253;52.232;5.176;2024-03-02T10:25:44;3.78;;;1.35;;
85682;SDS011;76253;52.232;5.176;2024-03-02T10:28:10;1.80;;;0.73;;
85682;SDS011;76253;52.232;5.176;2024-03-02T10:30:35;4.43;;;1.50;;
85682;SDS011;76253;52.232;5.176;2024-03-02T10:35:27;1.20;;;0.90;;
85682;SDS011;76253;52.232;5.176;2024-03-02T10:37:53;2.45;;;0.68;;
85682;SDS011;76253;52.232;5.176;2024-03-02T10:40:22;2.88;;;1.00;;
85682;SDS011;76253;52.232;5.176;2024-03-02T10:42:49;3.00;;;0.90;;
85682;SDS011;76253;52.232;5.176;2024-03-02T10:45:16;2.08;;;0.68;;
85682;SDS011;76253;52.232;5.176;2024-03-02T10:47:48;3.13;;;0.73;;
85682;SDS011;76253;52.232;5.176;2024-03-02T10:50:15;1.85;;;1.10;;
85682;SDS011;76253;52.232;5.176;2024-03-02T10:55:06;6.35;;;1.10;;
85682;SDS011;76253;52.232;5.176;2024-03-02T11:00:20;3.22;;;1.10;;
85682;SDS011;76253;52.232;5.176;2024-03-02T11:03:04;6.85;;;1.45;;
85682;SDS011;76253;52.232;5.176;2024-03-02T11:05:36;3.00;;;1.20;;
85682;SDS011;76253;52.232;5.176;2024-03-02T11:08:07;7.88;;;3.00;;
85682;SDS011;76253;52.232;5.176;2024-03-02T11:10:38;6.68;;;1.98;;
85682;SDS011;76253;52.232;5.176;2024-03-02T11:13:09;5.00;;;1.65;;
85682;SDS011;76253;52.232;5.176;2024-03-02T11:15:37;3.25;;;1.40;;
85682;SDS011;76253;52.232;5.176;2024-03-02T11:18:05;4.97;;;1.10;;
85682;SDS011;76253;52.232;5.176;2024-03-02T11:20:37;2.20;;;0.80;;
85682;SDS011;76253;52.232;5.176;2024-03-02T11:23:04;3.22;;;0.90;;
85682;SDS011;76253;52.232;5.176;2024-03-02T11:25:31;3.40;;;1.05;;
85682;SDS011;76253;52.232;5.176;2024-03-02T11:28:04;2.92;;;1.10;;
85682;SDS011;76253;52.232;5.176;2024-03-02T11:33:05;3.45;;;1.40;;
85682;SDS011;76253;52.232;5.176;2024-03-02T11:35:32;2.25;;;0.80;;
85682;SDS011;76253;52.232;5.176;2024-03-02T11:37:58;1.65;;;1.00;;
85682;SDS011;76253;52.232;5.176;2024-03-02T11:42:53;2.28;;;0.88;;
85682;SDS011;76253;52.232;5.176;2024-03-02T11:47:51;4.75;;;1.05;;
85682;SDS011;76253;52.232;5.176;2024-03-02T11:50:34;1.45;;;1.00;;
85682;SDS011;76253;52.232;5.176;2024-03-02T11:53:02;1.48;;;0.90;;
85682;SDS011;76253;52.232;5.176;2024-03-02T11:55:31;2.85;;;1.02;;
85682;SDS011;76253;52.232;5.176;2024-03-02T11:58:01;3.05;;;1.20;;
85682;SDS011;76253;52.232;5.176;2024-03-02T12:00:27;2.15;;;1.00;;
85682;SDS011;76253;52.232;5.176;2024-03-02T12:03:03;2.00;;;0.70;;
85682;SDS011;76253;52.232;5.176;2024-03-02T12:05:30;1.48;;;0.60;;
85682;SDS011;76253;52.232;5.176;2024-03-02T12:08:03;1.70;;;0.93;;
85682;SDS011;76253;52.232;5.176;2024-03-02T12:10:30;4.05;;;1.23;;
85682;SDS011;76253;52.232;5.176;2024-03-02T12:12:56;2.40;;;0.93;;
85682;SDS011;76253;52.232;5.176;2024-03-02T12:15:26;3.45;;;0.82;;
85682;SDS011;76253;52.232;5.176;2024-03-02T12:17:53;3.90;;;1.10;;
85682;SDS011;76253;52.232;5.176;2024-03-02T12:20:21;2.08;;;0.85;;
85682;SDS011;76253;52.232;5.176;2024-03-02T12:22:48;4.50;;;1.00;;
85682;SDS011;76253;52.232;5.176;2024-03-02T12:25:22;1.63;;;0.90;;
85682;SDS011;76253;52.232;5.176;2024-03-02T12:27:51;3.65;;;1.20;;
85682;SDS011;76253;52.232;5.176;2024-03-02T12:30:19;2.47;;;1.00;;
85682;SDS011;76253;52.232;5.176;2024-03-02T12:32:45;3.53;;;0.98;;
85682;SDS011;76253;52.232;5.176;2024-03-02T12:35:13;3.05;;;0.90;;
85682;SDS011;76253;52.232;5.176;2024-03-02T12:37:45;2.35;;;1.00;;
85682;SDS011;76253;52.232;5.176;2024-03-02T12:40:14;1.63;;;0.75;;
85682;SDS011;76253;52.232;5.176;2024-03-02T12:42:42;4.60;;;1.00;;
85682;SDS011;76253;52.232;5.176;2024-03-02T12:45:08;3.05;;;1.15;;
85682;SDS011;76253;52.232;5.176;2024-03-02T12:47:34;2.45;;;1.00;;
85682;SDS011;76253;52.232;5.176;2024-03-02T12:50:00;2.85;;;1.30;;
85682;SDS011;76253;52.232;5.176;2024-03-02T12:52:27;2.55;;;1.13;;
85682;SDS011;76253;52.232;5.176;2024-03-02T12:54:53;2.20;;;1.00;;
85682;SDS011;76253;52.232;5.176;2024-03-02T12:57:31;2.85;;;1.00;;
85682;SDS011;76253;52.232;5.176;2024-03-02T13:00:00;2.33;;;0.85;;
85682;SDS011;76253;52.232;5.176;2024-03-02T13:02:27;2.58;;;1.10;;
85682;SDS011;76253;52.232;5.176;2024-03-02T13:04:54;2.20;;;1.08;;
85682;SDS011;76253;52.232;5.176;2024-03-02T13:07:20;9.15;;;1.50;;
85682;SDS011;76253;52.232;5.176;2024-03-02T13:09:48;3.35;;;1.25;;
85682;SDS011;76253;52.232;5.176;2024-03-02T13:12:15;2.53;;;1.40;;
85682;SDS011;76253;52.232;5.176;2024-03-02T13:14:41;4.07;;;1.20;;
85682;SDS011;76253;52.232;5.176;2024-03-02T13:17:08;4.22;;;1.48;;
85682;SDS011;76253;52.232;5.176;2024-03-02T13:19:34;3.65;;;1.00;;
85682;SDS011;76253;52.232;5.176;2024-03-02T13:21:59;2.17;;;1.45;;
85682;SDS011;76253;52.232;5.176;2024-03-02T13:24:27;3.50;;;2.03;;
85682;SDS011;76253;52.232;5.176;2024-03-02T13:26:56;2.63;;;1.05;;
85682;SDS011;76253;52.232;5.176;2024-03-02T13:29:23;3.08;;;1.08;;
85682;SDS011;76253;52.232;5.176;2024-03-02T13:31:49;1.88;;;0.88;;
85682;SDS011;76253;52.232;5.176;2024-03-02T13:34:18;2.35;;;1.35;;
85682;SDS011;76253;52.232;5.176;2024-03-02T13:36:46;2.30;;;1.00;;
85682;SDS011;76253;52.232;5.176;2024-03-02T13:39:12;3.15;;;1.50;;
85682;SDS011;76253;52.232;5.176;2024-03-02T13:41:40;2.45;;;1.30;;
85682;SDS011;76253;52.232;5.176;2024-03-02T13:44:05;2.05;;;1.50;;
85682;SDS011;76253;52.232;5.176;2024-03-02T13:46:31;4.30;;;1.02;;
85682;SDS011;76253;52.232;5.176;2024-03-02T13:48:57;2.25;;;1.15;;
85682;SDS011;76253;52.232;5.176;2024-03-02T13:51:24;2.13;;;1.20;;
85682;SDS011;76253;52.232;5.176;2024-03-02T13:53:50;3.35;;;1.48;;
85682;SDS011;76253;52.232;5.176;2024-03-02T13:56:15;4.97;;;1.70;;
85682;SDS011;76253;52.232;5.176;2024-03-02T13:58:42;2.60;;;1.30;;
85682;SDS011;76253;52.232;5.176;2024-03-02T14:01:08;1.70;;;1.20;;
85682;SDS011;76253;52.232;5.176;2024-03-02T14:03:34;3.88;;;1.65;;
85682;SDS011;76253;52.232;5.176;2024-03-02T14:05:59;3.35;;;1.10;;
85682;SDS011;76253;52.232;5.176;2024-03-02T14:08:25;3.15;;;1.20;;
85682;SDS011;76253;52.232;5.176;2024-03-02T14:10:52;5.03;;;1.25;;
85682;SDS011;76253;52.232;5.176;2024-03-02T14:13:19;3.22;;;1.05;;
85682;SDS011;76253;52.232;5.176;2024-03-02T14:15:44;2.35;;;1.10;;
85682;SDS011;76253;52.232;5.176;2024-03-02T14:18:10;5.68;;;1.27;;
85682;SDS011;76253;52.232;5.176;2024-03-02T14:20:36;2.97;;;1.38;;
85682;SDS011;76253;52.232;5.176;2024-03-02T14:23:02;3.85;;;1.45;;
85682;SDS011;76253;52.232;5.176;2024-03-02T14:25:28;2.38;;;1.10;;
85682;SDS011;76253;52.232;5.176;2024-03-02T14:27:57;2.97;;;1.33;;
85682;SDS011;76253;52.232;5.176;2024-03-02T14:30:23;2.42;;;1.02;;
85682;SDS011;76253;52.232;5.176;2024-03-02T14:32:49;4.40;;;1.17;;
85682;SDS011;76253;52.232;5.176;2024-03-02T14:35:15;2.53;;;1.17;;
85682;SDS011;76253;52.232;5.176;2024-03-02T14:37:41;3.50;;;1.30;;
85682;SDS011;76253;52.232;5.176;2024-03-02T14:40:06;2.40;;;1.35;;
85682;SDS011;76253;52.232;5.176;2024-03-02T14:42:34;2.50;;;1.23;;
85682;SDS011;76253;52.232;5.176;2024-03-02T14:45:00;4.00;;;1.33;;
85682;SDS011;76253;52.232;5.176;2024-03-02T14:47:27;4.25;;;1.35;;
85682;SDS011;76253;52.232;5.176;2024-03-02T14:49:53;3.60;;;1.52;;
85682;SDS011;76253;52.232;5.176;2024-03-02T14:52:18;2.05;;;1.40;;
85682;SDS011;76253;52.232;5.176;2024-03-02T14:54:43;3.15;;;1.17;;
85682;SDS011;76253;52.232;5.176;2024-03-02T14:57:09;2.28;;;1.02;;
85682;SDS011;76253;52.232;5.176;2024-03-02T14:59:36;2.08;;;1.30;;
85682;SDS011;76253;52.232;5.176;2024-03-02T15:02:01;3.40;;;1.35;;
85682;SDS011;76253;52.232;5.176;2024-03-02T15:04:26;3.65;;;1.40;;
85682;SDS011;76253;52.232;5.176;2024-03-02T15:06:52;4.22;;;1.63;;
85682;SDS011;76253;52.232;5.176;2024-03-02T15:09:17;4.55;;;2.13;;
85682;SDS011;76253;52.232;5.176;2024-03-02T15:11:47;3.13;;;1.63;;
85682;SDS011;76253;52.232;5.176;2024-03-02T15:14:13;3.03;;;1.30;;
85682;SDS011;76253;52.232;5.176;2024-03-02T15:16:39;4.05;;;1.77;;
85682;SDS011;76253;52.232;5.176;2024-03-02T15:19:05;2.58;;;1.23;;
85682;SDS011;76253;52.232;5.176;2024-03-02T15:21:30;3.90;;;1.88;;
85682;SDS011;76253;52.232;5.176;2024-03-02T15:23:55;5.55;;;1.52;;
85682;SDS011;76253;52.232;5.176;2024-03-02T15:26:21;1.67;;;1.17;;
85682;SDS011;76253;52.232;5.176;2024-03-02T15:28:47;2.17;;;1.42;;